sensor_id;sensor_type;location;lat;lon;timestamp;P1;durP1;ratioP1;P2;durP2;ratioP2
7267;SDS011;3675;43.276;27.962;2022-08-07T00:01:40;8.25;;;7.03;;
7267;SDS011;3675;43.276;27.962;2022-08-07T00:04:06;8.50;;;7.10;;
7267;SDS011;3675;43.276;27.962;2022-08-07T00:06:32;8.52;;;7.30;;
7267;SDS011;3675;43.276;27.962;2022-08-07T00:08:57;8.70;;;7.32;;
7267;SDS011;3675;43.276;27.962;2022-08-07T00:11:23;8.52;;;6.72;;
7267;SDS011;3675;43.276;27.962;2022-08-07T00:13:48;8.73;;;7.25;;
7267;SDS011;3675;43.276;27.962;2022-08-07T00:16:14;9.98;;;7.63;;
7267;SDS011;3675;43.276;27.962;2022-08-07T00:18:39;8.68;;;7.78;;
7267;SDS011;3675;43.276;27.962;2022-08-07T00:21:06;8.20;;;7.35;;
7267;SDS011;3675;43.276;27.962;2022-08-07T00:23:33;10.50;;;7.60;;
7267;SDS011;3675;43.276;27.962;2022-08-07T00:26:00;9.13;;;8.23;;
7267;SDS011;3675;43.276;27.962;2022-08-07T00:28:27;8.60;;;7.70;;
7267;SDS011;3675;43.276;27.962;2022-08-07T00:30:53;9.32;;;7.72;;
7267;SDS011;3675;43.276;27.962;2022-08-07T00:33:18;10.65;;;7.97;;
7267;SDS011;3675;43.276;27.962;2022-08-07T00:35:44;9.70;;;8.70;;
7267;SDS011;3675;43.276;27.962;2022-08-07T00:38:09;9.25;;;7.72;;
7267;SDS011;3675;43.276;27.962;2022-08-07T00:40:35;9.10;;;8.20;;
7267;SDS011;3675;43.276;27.962;2022-08-07T00:43:01;12.20;;;9.35;;
7267;SDS011;3675;43.276;27.962;2022-08-07T00:45:27;9.45;;;8.00;;
7267;SDS011;3675;43.276;27.962;2022-08-07T00:47:52;9.98;;;8.63;;
7267;SDS011;3675;43.276;27.962;2022-08-07T00:50:18;10.13;;;8.88;;
7267;SDS011;3675;43.276;27.962;2022-08-07T00:52:43;12.32;;;8.57;;
7267;SDS011;3675;43.276;27.962;2022-08-07T00:55:09;9.32;;;7.75;;
7267;SDS011;3675;43.276;27.962;2022-08-07T00:57:35;9.32;;;8.43;;
7267;SDS011;3675;43.276;27.962;2022-08-07T01:00:02;11.88;;;9.50;;
7267;SDS011;3675;43.276;27.962;2022-08-07T01:02:29;12.52;;;9.10;;
7267;SDS011;3675;43.276;27.962;2022-08-07T01:04:55;9.38;;;8.43;;
7267;SDS011;3675;43.276;27.962;2022-08-07T01:07:21;10.95;;;9.15;;
7267;SDS011;3675;43.276;27.962;2022-08-07T01:09:47;11.80;;;9.35;;
7267;SDS011;3675;43.276;27.962;2022-08-07T01:12:13;11.27;;;8.85;;
7267;SDS011;3675;43.276;27.962;2022-08-07T01:14:39;10.57;;;9.07;;
7267;SDS011;3675;43.276;27.962;2022-08-07T01:17:05;10.75;;;9.25;;
7267;SDS011;3675;43.276;27.962;2022-08-07T01:19:30;10.90;;;8.90;;
7267;SDS011;3675;43.276;27.962;2022-08-07T01:21:56;10.55;;;9.43;;
7267;SDS011;3675;43.276;27.962;2022-08-07T01:24:22;11.02;;;9.85;;
7267;SDS011;3675;43.276;27.962;2022-08-07T01:26:48;11.15;;;9.77;;
7267;SDS011;3675;43.276;27.962;2022-08-07T01:29:14;12.48;;;9.02;;
7267;SDS011;3675;43.276;27.962;2022-08-07T01:31:40;16.45;;;11.07;;
7267;SDS011;3675;43.276;27.962;2022-08-07T01:34:06;13.30;;;10.65;;
7267;SDS011;3675;43.276;27.962;2022-08-07T01:36:31;10.70;;;9.65;;
7267;SDS011;3675;43.276;27.962;2022-08-07T01:38:57;11.38;;;9.77;;
7267;SDS011;3675;43.276;27.962;2022-08-07T01:41:23;11.77;;;10.50;;
7267;SDS011;3675;43.276;27.962;2022-08-07T01:43:49;11.43;;;10.10;;
7267;SDS011;3675;43.276;27.962;2022-08-07T01:46:15;12.30;;;10.23;;
7267;SDS011;3675;43.276;27.962;2022-08-07T01:48:41;11.35;;;9.82;;
7267;SDS011;3675;43.276;27.962;2022-08-07T01:51:08;10.48;;;9.40;;
7267;SDS011;3675;43.276;27.962;2022-08-07T01:53:37;10.93;;;9.15;;
7267;SDS011;3675;43.276;27.962;2022-08-07T01:56:12;10.65;;;9.30;;
7267;SDS011;3675;43.276;27.962;2022-08-07T01:58:48;12.95;;;10.90;;
7267;SDS011;3675;43.276;27.962;2022-08-07T02:01:19;11.13;;;9.32;;
7267;SDS011;3675;43.276;27.962;2022-08-07T02:03:50;16.80;;;10.63;;
7267;SDS011;3675;43.276;27.962;2022-08-07T02:06:20;13.52;;;10.88;;
7267;SDS011;3675;43.276;27.962;2022-08-07T02:08:48;14.70;;;10.07;;
7267;SDS011;3675;43.276;27.962;2022-08-07T02:11:14;13.35;;;10.55;;
7267;SDS011;3675;43.276;27.962;2022-08-07T02:13:40;14.13;;;10.27;;
7267;SDS011;3675;43.276;27.962;2022-08-07T02:16:06;12.25;;;10.27;;
7267;SDS011;3675;43.276;27.962;2022-08-07T02:18:33;12.43;;;10.60;;
7267;SDS011;3675;43.276;27.962;2022-08-07T02:21:02;14.07;;;11.20;;
7267;SDS011;3675;43.276;27.962;2022-08-07T02:23:28;14.35;;;12.05;;
7267;SDS011;3675;43.276;27.962;2022-08-07T02:25:54;19.15;;;12.68;;
7267;SDS011;3675;43.276;27.962;2022-08-07T02:28:21;19.75;;;12.40;;
7267;SDS011;3675;43.276;27.962;2022-08-07T02:30:47;15.48;;;11.65;;
7267;SDS011;3675;43.276;27.962;2022-08-07T02:33:14;17.08;;;12.77;;
7267;SDS011;3675;43.276;27.962;2022-08-07T02:35:41;17.45;;;12.27;;
7267;SDS011;3675;43.276;27.962;2022-08-07T02:38:07;17.13;;;11.43;;
7267;SDS011;3675;43.276;27.962;2022-08-07T02:40:33;15.85;;;11.73;;
7267;SDS011;3675;43.276;27.962;2022-08-07T02:42:58;15.45;;;11.55;;
7267;SDS011;3675;43.276;27.962;2022-08-07T02:45:25;19.63;;;11.95;;
7267;SDS011;3675;43.276;27.962;2022-08-07T02:47:52;16.30;;;11.93;;
7267;SDS011;3675;43.276;27.962;2022-08-07T02:50:17;13.15;;;10.77;;
7267;SDS011;3675;43.276;27.962;2022-08-07T02:52:45;12.10;;;10.55;;
7267;SDS011;3675;43.276;27.962;2022-08-07T02:55:22;13.43;;;10.63;;
7267;SDS011;3675;43.276;27.962;2022-08-07T02:57:51;14.57;;;11.27;;
7267;SDS011;3675;43.276;27.962;2022-08-07T03:00:18;14.48;;;11.30;;
7267;SDS011;3675;43.276;27.962;2022-08-07T03:02:45;14.77;;;12.10;;
7267;SDS011;3675;43.276;27.962;2022-08-07T03:05:12;14.93;;;11.23;;
7267;SDS011;3675;43.276;27.962;2022-08-07T03:07:39;14.10;;;11.27;;
7267;SDS011;3675;43.276;27.962;2022-08-07T03:10:06;14.95;;;11.75;;
7267;SDS011;3675;43.276;27.962;2022-08-07T03:12:33;14.73;;;11.20;;
7267;SDS011;3675;43.276;27.962;2022-08-07T03:14:59;12.27;;;10.98;;
7267;SDS011;3675;43.276;27.962;2022-08-07T03:17:25;15.48;;;11.75;;
7267;SDS011;3675;43.276;27.962;2022-08-07T03:19:51;20.05;;;12.52;;
7267;SDS011;3675;43.276;27.962;2022-08-07T03:22:17;15.60;;;11.48;;
7267;SDS011;3675;43.276;27.962;2022-08-07T03:24:44;14.88;;;10.70;;
7267;SDS011;3675;43.276;27.962;2022-08-07T03:27:10;13.48;;;10.73;;
7267;SDS011;3675;43.276;27.962;2022-08-07T03:29:39;11.80;;;10.10;;
7267;SDS011;3675;43.276;27.962;2022-08-07T03:32:09;15.32;;;10.98;;
7267;SDS011;3675;43.276;27.962;2022-08-07T03:34:37;14.75;;;10.23;;
7267;SDS011;3675;43.276;27.962;2022-08-07T03:37:03;11.90;;;10.20;;
7267;SDS011;3675;43.276;27.962;2022-08-07T03:39:30;12.38;;;9.50;;
7267;SDS011;3675;43.276;27.962;2022-08-07T03:41:57;13.15;;;10.52;;
7267;SDS011;3675;43.276;27.962;2022-08-07T03:44:24;10.60;;;9.48;;
7267;SDS011;3675;43.276;27.962;2022-08-07T03:46:50;12.77;;;9.93;;
7267;SDS011;3675;43.276;27.962;2022-08-07T03:49:15;11.55;;;8.75;;
7267;SDS011;3675;43.276;27.962;2022-08-07T03:51:41;9.27;;;8.18;;
7267;SDS011;3675;43.276;27.962;2022-08-07T03:54:08;11.27;;;7.75;;
7267;SDS011;3675;43.276;27.962;2022-08-07T03:56:33;10.43;;;8.57;;
7267;SDS011;3675;43.276;27.962;2022-08-07T03:59:02;9.30;;;8.35;;
7267;SDS011;3675;43.276;27.962;2022-08-07T04:01:28;10.35;;;8.20;;
7267;SDS011;3675;43.276;27.962;2022-08-07T04:03:54;8.30;;;7.50;;
7267;SDS011;3675;43.276;27.962;2022-08-07T04:06:20;14.30;;;8.20;;
7267;SDS011;3675;43.276;27.962;2022-08-07T04:08:45;8.98;;;8.05;;
7267;SDS011;3675;43.276;27.962;2022-08-07T04:11:11;11.65;;;7.85;;
7267;SDS011;3675;43.276;27.962;2022-08-07T04:13:37;9.60;;;8.57;;
7267;SDS011;3675;43.276;27.962;2022-08-07T04:16:04;10.95;;;8.32;;
7267;SDS011;3675;43.276;27.962;2022-08-07T04:18:29;8.70;;;7.75;;
7267;SDS011;3675;43.276;27.962;2022-08-07T04:20:55;8.48;;;7.55;;
7267;SDS011;3675;43.276;27.962;2022-08-07T04:23:30;8.02;;;7.25;;
7267;SDS011;3675;43.276;27.962;2022-08-07T04:25:56;9.93;;;7.85;;
7267;SDS011;3675;43.276;27.962;2022-08-07T04:28:22;7.95;;;7.03;;
7267;SDS011;3675;43.276;27.962;2022-08-07T04:30:48;7.70;;;6.75;;
7267;SDS011;3675;43.276;27.962;2022-08-07T04:33:14;6.95;;;6.45;;
7267;SDS011;3675;43.276;27.962;2022-08-07T04:35:42;6.68;;;6.18;;
7267;SDS011;3675;43.276;27.962;2022-08-07T04:38:10;6.97;;;6.28;;
7267;SDS011;3675;43.276;27.962;2022-08-07T04:40:40;6.30;;;5.82;;
7267;SDS011;3675;43.276;27.962;2022-08-07T04:43:07;7.00;;;6.30;;
7267;SDS011;3675;43.276;27.962;2022-08-07T04:51:15;6.68;;;5.88;;
7267;SDS011;3675;43.276;27.962;2022-08-07T04:53:58;6.88;;;5.97;;
7267;SDS011;3675;43.276;27.962;2022-08-07T04:59:24;5.57;;;5.20;;
7267;SDS011;3675;43.276;27.962;2022-08-07T05:03:06;7.45;;;5.72;;
7267;SDS011;3675;43.276;27.962;2022-08-07T05:08:03;6.18;;;5.35;;
7267;SDS011;3675;43.276;27.962;2022-08-07T05:13:27;6.00;;;5.50;;
7267;SDS011;3675;43.276;27.962;2022-08-07T05:16:01;7.43;;;5.63;;
7267;SDS011;3675;43.276;27.962;2022-08-07T05:18:29;5.25;;;4.85;;
7267;SDS011;3675;43.276;27.962;2022-08-07T05:21:04;5.35;;;4.95;;
7267;SDS011;3675;43.276;27.962;2022-08-07T05:26:00;5.45;;;4.95;;
7267;SDS011;3675;43.276;27.962;2022-08-07T05:28:27;5.03;;;4.63;;
7267;SDS011;3675;43.276;27.962;2022-08-07T05:30:54;5.70;;;5.20;;
7267;SDS011;3675;43.276;27.962;2022-08-07T05:33:24;6.30;;;5.60;;
7267;SDS011;3675;43.276;27.962;2022-08-07T05:35:51;8.40;;;5.60;;
7267;SDS011;3675;43.276;27.962;2022-08-07T05:38:18;5.78;;;5.38;;
7267;SDS011;3675;43.276;27.962;2022-08-07T05:40:50;6.90;;;5.97;;
7267;SDS011;3675;43.276;27.962;2022-08-07T05:43:15;6.57;;;5.80;;
7267;SDS011;3675;43.276;27.962;2022-08-07T05:45:42;6.22;;;5.72;;
7267;SDS011;3675;43.276;27.962;2022-08-07T05:48:09;7.78;;;6.07;;
7267;SDS011;3675;43.276;27.962;2022-08-07T05:50:34;5.97;;;5.47;;
7267;SDS011;3675;43.276;27.962;2022-08-07T05:53:01;7.20;;;6.32;;
7267;SDS011;3675;43.276;27.962;2022-08-07T05:55:28;6.10;;;5.60;;
7267;SDS011;3675;43.276;27.962;2022-08-07T05:57:57;5.63;;;5.10;;
7267;SDS011;3675;43.276;27.962;2022-08-07T06:00:43;7.47;;;6.68;;
7267;SDS011;3675;43.276;27.962;2022-08-07T06:03:19;6.32;;;5.82;;
7267;SDS011;3675;43.276;27.962;2022-08-07T06:05:52;6.82;;;6.18;;
7267;SDS011;3675;43.276;27.962;2022-08-07T06:08:18;11.88;;;5.18;;
7267;SDS011;3675;43.276;27.962;2022-08-07T06:10:44;9.07;;;6.15;;
7267;SDS011;3675;43.276;27.962;2022-08-07T06:13:25;6.03;;;5.53;;
7267;SDS011;3675;43.276;27.962;2022-08-07T06:15:51;6.20;;;5.70;;
7267;SDS011;3675;43.276;27.962;2022-08-07T06:18:19;5.68;;;5.28;;
7267;SDS011;3675;43.276;27.962;2022-08-07T06:20:45;7.03;;;6.15;;
7267;SDS011;3675;43.276;27.962;2022-08-07T06:23:14;6.03;;;5.55;;
7267;SDS011;3675;43.276;27.962;2022-08-07T06:25:40;6.00;;;5.45;;
7267;SDS011;3675;43.276;27.962;2022-08-07T06:28:18;6.65;;;5.32;;
7267;SDS011;3675;43.276;27.962;2022-08-07T06:30:44;6.15;;;5.60;;
7267;SDS011;3675;43.276;27.962;2022-08-07T06:33:10;5.80;;;5.30;;
7267;SDS011;3675;43.276;27.962;2022-08-07T06:35:44;6.22;;;5.78;;
7267;SDS011;3675;43.276;27.962;2022-08-07T06:38:10;6.20;;;5.78;;
7267;SDS011;3675;43.276;27.962;2022-08-07T06:40:45;6.85;;;4.18;;
7267;SDS011;3675;43.276;27.962;2022-08-07T06:43:13;6.43;;;5.90;;
7267;SDS011;3675;43.276;27.962;2022-08-07T06:45:40;5.65;;;5.25;;
7267;SDS011;3675;43.276;27.962;2022-08-07T06:48:08;6.05;;;5.57;;
7267;SDS011;3675;43.276;27.962;2022-08-07T06:50:34;7.68;;;5.93;;
7267;SDS011;3675;43.276;27.962;2022-08-07T06:53:03;5.75;;;5.35;;
7267;SDS011;3675;43.276;27.962;2022-08-07T06:55:31;6.43;;;5.93;;
7267;SDS011;3675;43.276;27.962;2022-08-07T06:57:58;5.35;;;4.95;;
7267;SDS011;3675;43.276;27.962;2022-08-07T07:00:30;5.60;;;5.22;;
7267;SDS011;3675;43.276;27.962;2022-08-07T07:02:58;5.93;;;5.35;;
7267;SDS011;3675;43.276;27.962;2022-08-07T07:05:27;7.32;;;5.28;;
7267;SDS011;3675;43.276;27.962;2022-08-07T07:07:53;5.05;;;4.68;;
7267;SDS011;3675;43.276;27.962;2022-08-07T07:10:29;10.05;;;5.43;;
7267;SDS011;3675;43.276;27.962;2022-08-07T07:12:57;6.20;;;5.60;;
7267;SDS011;3675;43.276;27.962;2022-08-07T07:15:29;5.50;;;5.13;;
7267;SDS011;3675;43.276;27.962;2022-08-07T07:20:57;5.68;;;5.28;;
7267;SDS011;3675;43.276;27.962;2022-08-07T07:23:26;5.68;;;5.28;;
7267;SDS011;3675;43.276;27.962;2022-08-07T07:25:55;5.28;;;4.72;;
7267;SDS011;3675;43.276;27.962;2022-08-07T07:28:26;4.85;;;4.55;;
7267;SDS011;3675;43.276;27.962;2022-08-07T07:31:19;5.38;;;4.90;;
7267;SDS011;3675;43.276;27.962;2022-08-07T07:34:09;7.40;;;5.95;;
7267;SDS011;3675;43.276;27.962;2022-08-07T07:36:38;7.22;;;6.00;;
7267;SDS011;3675;43.276;27.962;2022-08-07T07:39:04;5.38;;;4.90;;
7267;SDS011;3675;43.276;27.962;2022-08-07T07:41:31;6.80;;;5.57;;
7267;SDS011;3675;43.276;27.962;2022-08-07T07:44:01;5.63;;;5.13;;
7267;SDS011;3675;43.276;27.962;2022-08-07T07:46:37;5.70;;;5.25;;
7267;SDS011;3675;43.276;27.962;2022-08-07T07:49:04;8.82;;;5.07;;
7267;SDS011;3675;43.276;27.962;2022-08-07T07:51:36;4.90;;;4.57;;
7267;SDS011;3675;43.276;27.962;2022-08-07T07:54:02;4.82;;;4.53;;
7267;SDS011;3675;43.276;27.962;2022-08-07T07:56:32;6.07;;;4.53;;
7267;SDS011;3675;43.276;27.962;2022-08-07T07:58:59;4.70;;;4.30;;
7267;SDS011;3675;43.276;27.962;2022-08-07T08:01:26;8.32;;;4.53;;
7267;SDS011;3675;43.276;27.962;2022-08-07T08:03:54;8.13;;;4.57;;
7267;SDS011;3675;43.276;27.962;2022-08-07T08:06:22;4.97;;;4.50;;
7267;SDS011;3675;43.276;27.962;2022-08-07T08:08:49;4.85;;;4.45;;
7267;SDS011;3675;43.276;27.962;2022-08-07T08:11:15;5.57;;;4.93;;
7267;SDS011;3675;43.276;27.962;2022-08-07T08:13:41;3.55;;;3.35;;
7267;SDS011;3675;43.276;27.962;2022-08-07T08:16:08;4.65;;;4.30;;
7267;SDS011;3675;43.276;27.962;2022-08-07T08:18:37;3.67;;;3.47;;
7267;SDS011;3675;43.276;27.962;2022-08-07T08:21:02;3.67;;;3.38;;
7267;SDS011;3675;43.276;27.962;2022-08-07T08:23:29;4.35;;;3.95;;
7267;SDS011;3675;43.276;27.962;2022-08-07T08:26:15;4.05;;;3.80;;
7267;SDS011;3675;43.276;27.962;2022-08-07T08:29:00;4.28;;;3.97;;
7267;SDS011;3675;43.276;27.962;2022-08-07T08:31:27;8.13;;;3.90;;
7267;SDS011;3675;43.276;27.962;2022-08-07T08:33:54;4.03;;;3.75;;
7267;SDS011;3675;43.276;27.962;2022-08-07T08:36:28;4.60;;;3.47;;
7267;SDS011;3675;43.276;27.962;2022-08-07T08:38:54;4.35;;;4.03;;
7267;SDS011;3675;43.276;27.962;2022-08-07T08:46:55;5.00;;;3.78;;
7267;SDS011;3675;43.276;27.962;2022-08-07T08:53:08;3.10;;;2.97;;
7267;SDS011;3675;43.276;27.962;2022-08-07T08:55:52;3.70;;;3.50;;
7267;SDS011;3675;43.276;27.962;2022-08-07T08:58:35;4.90;;;4.05;;
7267;SDS011;3675;43.276;27.962;2022-08-07T09:01:33;8.07;;;4.30;;
7267;SDS011;3675;43.276;27.962;2022-08-07T09:04:15;3.90;;;3.63;;
7267;SDS011;3675;43.276;27.962;2022-08-07T09:12:52;4.25;;;3.95;;
7267;SDS011;3675;43.276;27.962;2022-08-07T09:26:26;4.80;;;3.72;;
7267;SDS011;3675;43.276;27.962;2022-08-07T09:28:53;3.75;;;3.55;;
7267;SDS011;3675;43.276;27.962;2022-08-07T09:31:34;7.88;;;3.67;;
7267;SDS011;3675;43.276;27.962;2022-08-07T09:37:03;4.38;;;3.97;;
7267;SDS011;3675;43.276;27.962;2022-08-07T09:39:47;7.05;;;3.65;;
7267;SDS011;3675;43.276;27.962;2022-08-07T09:45:06;3.65;;;3.45;;
7267;SDS011;3675;43.276;27.962;2022-08-07T09:53:15;3.50;;;3.30;;
7267;SDS011;3675;43.276;27.962;2022-08-07T10:01:22;3.83;;;3.53;;
7267;SDS011;3675;43.276;27.962;2022-08-07T10:07:05;4.05;;;3.75;;
7267;SDS011;3675;43.276;27.962;2022-08-07T10:26:28;2.47;;;2.38;;
7267;SDS011;3675;43.276;27.962;2022-08-07T10:29:16;2.92;;;2.72;;
7267;SDS011;3675;43.276;27.962;2022-08-07T10:40:13;3.70;;;2.35;;
7267;SDS011;3675;43.276;27.962;2022-08-07T10:45:47;25.20;;;22.80;;
7267;SDS011;3675;43.276;27.962;2022-08-07T10:48:34;31.50;;;26.77;;
7267;SDS011;3675;43.276;27.962;2022-08-07T11:02:55;2.00;;;1.90;;
7267;SDS011;3675;43.276;27.962;2022-08-07T11:08:37;2.13;;;2.03;;
7267;SDS011;3675;43.276;27.962;2022-08-07T11:11:20;1.80;;;1.70;;
7267;SDS011;3675;43.276;27.962;2022-08-07T11:16:42;2.13;;;1.98;;
7267;SDS011;3675;43.276;27.962;2022-08-07T11:22:24;2.45;;;2.25;;
7267;SDS011;3675;43.276;27.962;2022-08-07T11:25:16;3.83;;;1.92;;
7267;SDS011;3675;43.276;27.962;2022-08-07T11:28:08;2.38;;;2.28;;
7267;SDS011;3675;43.276;27.962;2022-08-07T11:33:28;2.25;;;2.15;;
7267;SDS011;3675;43.276;27.962;2022-08-07T11:41:27;34.38;;;22.08;;
7267;SDS011;3675;43.276;27.962;2022-08-07T11:44:06;5.30;;;4.38;;
7267;SDS011;3675;43.276;27.962;2022-08-07T11:55:00;12.48;;;11.13;;
7267;SDS011;3675;43.276;27.962;2022-08-07T12:00:18;1.83;;;1.80;;
7267;SDS011;3675;43.276;27.962;2022-08-07T12:08:36;3.47;;;2.55;;
7267;SDS011;3675;43.276;27.962;2022-08-07T12:14:18;1.60;;;1.50;;
7267;SDS011;3675;43.276;27.962;2022-08-07T12:16:47;2.05;;;1.65;;
7267;SDS011;3675;43.276;27.962;2022-08-07T12:24:32;1.75;;;1.65;;
7267;SDS011;3675;43.276;27.962;2022-08-07T12:27:06;2.33;;;1.80;;
7267;SDS011;3675;43.276;27.962;2022-08-07T12:29:37;1.38;;;1.38;;
7267;SDS011;3675;43.276;27.962;2022-08-07T12:32:18;2.40;;;1.20;;
7267;SDS011;3675;43.276;27.962;2022-08-07T12:34:46;1.35;;;1.35;;
7267;SDS011;3675;43.276;27.962;2022-08-07T12:37:14;2.15;;;1.58;;
7267;SDS011;3675;43.276;27.962;2022-08-07T12:39:40;1.15;;;1.15;;
7267;SDS011;3675;43.276;27.962;2022-08-07T12:42:07;2.03;;;1.67;;
7267;SDS011;3675;43.276;27.962;2022-08-07T12:44:34;2.13;;;2.03;;
7267;SDS011;3675;43.276;27.962;2022-08-07T12:52:14;1.70;;;1.60;;
7267;SDS011;3675;43.276;27.962;2022-08-07T12:57:28;2.63;;;2.15;;
7267;SDS011;3675;43.276;27.962;2022-08-07T12:59:55;1.65;;;1.50;;
7267;SDS011;3675;43.276;27.962;2022-08-07T13:10:29;4.60;;;2.25;;
7267;SDS011;3675;43.276;27.962;2022-08-07T13:13:26;1.50;;;1.42;;
7267;SDS011;3675;43.276;27.962;2022-08-07T13:18:52;2.72;;;2.50;;
7267;SDS011;3675;43.276;27.962;2022-08-07T13:21:27;2.17;;;2.08;;
7267;SDS011;3675;43.276;27.962;2022-08-07T13:26:54;2.35;;;2.15;;
7267;SDS011;3675;43.276;27.962;2022-08-07T13:41:05;4.20;;;1.85;;
7267;SDS011;3675;43.276;27.962;2022-08-07T13:43:41;1.63;;;1.52;;
7267;SDS011;3675;43.276;27.962;2022-08-07T13:46:07;3.15;;;1.70;;
7267;SDS011;3675;43.276;27.962;2022-08-07T13:48:37;1.52;;;1.52;;
7267;SDS011;3675;43.276;27.962;2022-08-07T13:51:03;2.28;;;2.00;;
7267;SDS011;3675;43.276;27.962;2022-08-07T13:53:32;1.83;;;1.70;;
7267;SDS011;3675;43.276;27.962;2022-08-07T13:56:00;1.30;;;1.30;;
7267;SDS011;3675;43.276;27.962;2022-08-07T13:58:27;5.15;;;2.50;;
7267;SDS011;3675;43.276;27.962;2022-08-07T14:01:14;1.92;;;1.92;;
7267;SDS011;3675;43.276;27.962;2022-08-07T14:03:41;1.80;;;1.70;;
7267;SDS011;3675;43.276;27.962;2022-08-07T14:06:07;6.68;;;2.13;;
7267;SDS011;3675;43.276;27.962;2022-08-07T14:08:35;1.88;;;1.75;;
7267;SDS011;3675;43.276;27.962;2022-08-07T14:11:05;1.80;;;1.70;;
7267;SDS011;3675;43.276;27.962;2022-08-07T14:13:31;1.63;;;1.63;;
7267;SDS011;3675;43.276;27.962;2022-08-07T14:16:01;1.95;;;1.85;;
7267;SDS011;3675;43.276;27.962;2022-08-07T14:18:37;4.43;;;2.08;;
7267;SDS011;3675;43.276;27.962;2022-08-07T14:21:13;1.63;;;1.52;;
7267;SDS011;3675;43.276;27.962;2022-08-07T14:23:50;2.88;;;2.67;;
7267;SDS011;3675;43.276;27.962;2022-08-07T14:26:22;1.67;;;1.67;;
7267;SDS011;3675;43.276;27.962;2022-08-07T14:28:51;1.60;;;1.50;;
7267;SDS011;3675;43.276;27.962;2022-08-07T14:31:21;2.13;;;2.00;;
7267;SDS011;3675;43.276;27.962;2022-08-07T14:33:49;1.85;;;1.73;;
7267;SDS011;3675;43.276;27.962;2022-08-07T14:36:16;1.88;;;1.77;;
7267;SDS011;3675;43.276;27.962;2022-08-07T14:38:42;1.90;;;1.80;;
7267;SDS011;3675;43.276;27.962;2022-08-07T14:41:10;1.92;;;1.77;;
7267;SDS011;3675;43.276;27.962;2022-08-07T14:43:39;1.65;;;1.55;;
7267;SDS011;3675;43.276;27.962;2022-08-07T14:46:06;1.60;;;1.60;;
7267;SDS011;3675;43.276;27.962;2022-08-07T14:48:35;2.15;;;1.88;;
7267;SDS011;3675;43.276;27.962;2022-08-07T14:51:06;1.98;;;1.88;;
7267;SDS011;3675;43.276;27.962;2022-08-07T14:53:41;1.85;;;1.80;;
7267;SDS011;3675;43.276;27.962;2022-08-07T14:56:09;1.60;;;1.60;;
7267;SDS011;3675;43.276;27.962;2022-08-07T14:58:39;3.30;;;2.08;;
7267;SDS011;3675;43.276;27.962;2022-08-07T15:01:08;1.73;;;1.63;;
7267;SDS011;3675;43.276;27.962;2022-08-07T15:03:34;1.52;;;1.52;;
7267;SDS011;3675;43.276;27.962;2022-08-07T15:06:01;7.35;;;1.80;;
7267;SDS011;3675;43.276;27.962;2022-08-07T15:08:28;1.83;;;1.73;;
7267;SDS011;3675;43.276;27.962;2022-08-07T15:11:00;1.88;;;1.77;;
7267;SDS011;3675;43.276;27.962;2022-08-07T15:13:28;1.38;;;1.38;;
7267;SDS011;3675;43.276;27.962;2022-08-07T15:15:56;1.80;;;1.63;;
7267;SDS011;3675;43.276;27.962;2022-08-07T15:18:36;1.25;;;1.25;;
7267;SDS011;3675;43.276;27.962;2022-08-07T15:21:06;1.40;;;1.30;;
7267;SDS011;3675;43.276;27.962;2022-08-07T15:23:37;1.60;;;1.50;;
7267;SDS011;3675;43.276;27.962;2022-08-07T15:26:03;2.08;;;1.88;;
7267;SDS011;3675;43.276;27.962;2022-08-07T15:28:30;1.48;;;1.38;;
7267;SDS011;3675;43.276;27.962;2022-08-07T15:31:00;1.88;;;1.65;;
7267;SDS011;3675;43.276;27.962;2022-08-07T15:33:27;2.28;;;2.08;;
7267;SDS011;3675;43.276;27.962;2022-08-07T15:35:54;1.55;;;1.45;;
7267;SDS011;3675;43.276;27.962;2022-08-07T15:38:26;1.33;;;1.33;;
7267;SDS011;3675;43.276;27.962;2022-08-07T15:40:53;1.75;;;1.50;;
7267;SDS011;3675;43.276;27.962;2022-08-07T15:43:21;2.20;;;1.90;;
7267;SDS011;3675;43.276;27.962;2022-08-07T15:45:49;1.63;;;1.63;;
7267;SDS011;3675;43.276;27.962;2022-08-07T15:48:17;2.90;;;2.08;;
7267;SDS011;3675;43.276;27.962;2022-08-07T15:50:50;1.83;;;1.73;;
7267;SDS011;3675;43.276;27.962;2022-08-07T15:53:28;3.50;;;1.60;;
7267;SDS011;3675;43.276;27.962;2022-08-07T15:55:59;1.88;;;1.77;;
7267;SDS011;3675;43.276;27.962;2022-08-07T15:58:31;1.88;;;1.77;;
7267;SDS011;3675;43.276;27.962;2022-08-07T16:01:02;2.15;;;1.83;;
7267;SDS011;3675;43.276;27.962;2022-08-07T16:03:31;1.70;;;1.60;;
7267;SDS011;3675;43.276;27.962;2022-08-07T16:06:00;2.35;;;1.65;;
7267;SDS011;3675;43.276;27.962;2022-08-07T16:08:27;1.80;;;1.70;;
7267;SDS011;3675;43.276;27.962;2022-08-07T16:10:56;1.48;;;1.38;;
7267;SDS011;3675;43.276;27.962;2022-08-07T16:13:43;1.63;;;1.35;;
7267;SDS011;3675;43.276;27.962;2022-08-07T16:16:31;1.85;;;1.75;;
7267;SDS011;3675;43.276;27.962;2022-08-07T16:25:02;2.10;;;2.00;;
7267;SDS011;3675;43.276;27.962;2022-08-07T16:27:47;1.58;;;1.52;;
7267;SDS011;3675;43.276;27.962;2022-08-07T16:30:19;4.50;;;1.70;;
7267;SDS011;3675;43.276;27.962;2022-08-07T16:32:48;1.50;;;1.50;;
7267;SDS011;3675;43.276;27.962;2022-08-07T16:35:47;2.47;;;1.42;;
7267;SDS011;3675;43.276;27.962;2022-08-07T16:46:36;1.77;;;1.70;;
7267;SDS011;3675;43.276;27.962;2022-08-07T16:54:51;1.25;;;1.17;;
7267;SDS011;3675;43.276;27.962;2022-08-07T16:57:30;2.03;;;1.67;;
7267;SDS011;3675;43.276;27.962;2022-08-07T17:00:08;1.58;;;1.58;;
7267;SDS011;3675;43.276;27.962;2022-08-07T17:02:37;1.65;;;1.45;;
7267;SDS011;3675;43.276;27.962;2022-08-07T17:07:54;1.25;;;1.25;;
7267;SDS011;3675;43.276;27.962;2022-08-07T17:10:23;1.13;;;1.13;;
7267;SDS011;3675;43.276;27.962;2022-08-07T17:12:57;1.20;;;1.20;;
7267;SDS011;3675;43.276;27.962;2022-08-07T17:19:21;1.38;;;1.38;;
7267;SDS011;3675;43.276;27.962;2022-08-07T17:21:47;1.70;;;1.60;;
7267;SDS011;3675;43.276;27.962;2022-08-07T17:24:22;2.42;;;1.45;;
7267;SDS011;3675;43.276;27.962;2022-08-07T17:26:59;2.30;;;1.45;;
7267;SDS011;3675;43.276;27.962;2022-08-07T17:29:48;1.65;;;1.55;;
7267;SDS011;3675;43.276;27.962;2022-08-07T17:32:26;1.75;;;1.67;;
7267;SDS011;3675;43.276;27.962;2022-08-07T17:34:56;6.78;;;2.00;;
7267;SDS011;3675;43.276;27.962;2022-08-07T17:37:34;6.93;;;2.63;;
7267;SDS011;3675;43.276;27.962;2022-08-07T17:40:48;3.22;;;1.73;;
7267;SDS011;3675;43.276;27.962;2022-08-07T17:43:08;2.10;;;1.98;;
7267;SDS011;3675;43.276;27.962;2022-08-07T17:45:40;1.80;;;1.60;;
7267;SDS011;3675;43.276;27.962;2022-08-07T17:48:21;1.48;;;1.38;;
7267;SDS011;3675;43.276;27.962;2022-08-07T17:59:02;1.50;;;1.50;;
7267;SDS011;3675;43.276;27.962;2022-08-07T18:04:41;1.67;;;1.58;;
7267;SDS011;3675;43.276;27.962;2022-08-07T18:09:48;1.75;;;1.65;;
7267;SDS011;3675;43.276;27.962;2022-08-07T18:12:30;1.60;;;1.50;;
7267;SDS011;3675;43.276;27.962;2022-08-07T18:15:24;1.27;;;1.27;;
7267;SDS011;3675;43.276;27.962;2022-08-07T18:17:55;1.65;;;1.55;;
7267;SDS011;3675;43.276;27.962;2022-08-07T18:20:37;1.45;;;1.30;;
7267;SDS011;3675;43.276;27.962;2022-08-07T18:23:08;1.48;;;1.38;;
7267;SDS011;3675;43.276;27.962;2022-08-07T18:25:37;1.30;;;1.30;;
7267;SDS011;3675;43.276;27.962;2022-08-07T18:33:42;3.13;;;1.90;;
7267;SDS011;3675;43.276;27.962;2022-08-07T18:47:06;2.08;;;1.98;;
7267;SDS011;3675;43.276;27.962;2022-08-07T19:02:48;2.03;;;1.92;;
7267;SDS011;3675;43.276;27.962;2022-08-07T19:05:35;4.50;;;1.55;;
7267;SDS011;3675;43.276;27.962;2022-08-07T19:08:09;1.80;;;1.70;;
7267;SDS011;3675;43.276;27.962;2022-08-07T19:10:39;2.55;;;1.80;;
7267;SDS011;3675;43.276;27.962;2022-08-07T19:13:08;2.15;;;1.63;;
7267;SDS011;3675;43.276;27.962;2022-08-07T19:18:43;1.65;;;1.50;;
7267;SDS011;3675;43.276;27.962;2022-08-07T19:23:54;1.60;;;1.50;;
7267;SDS011;3675;43.276;27.962;2022-08-07T19:26:24;1.20;;;1.20;;
7267;SDS011;3675;43.276;27.962;2022-08-07T19:28:54;1.35;;;1.35;;
7267;SDS011;3675;43.276;27.962;2022-08-07T19:31:36;1.52;;;1.52;;
7267;SDS011;3675;43.276;27.962;2022-08-07T21:53:32;4.03;;;1.95;;